Time;durP1;ratioP1;P1;durP2;ratioP2;P2;SDS_P1;SDS_P2;PMS_P1;PMS_P2;Temp;Humidity;BMP_temperature;BMP_pressure;BME280_temperature;BME280_humidity;BME280_pressure;Samples;Min_cycle;Max_cycle;Signal;HPM_P1;HPM_P2
2022/12/09 00:02:12;;;;;;;36.70;20.50;;;;;;;6.68;100.00;94515.84;5102968;28;20185;-78
2022/12/09 00:04:39;;;;;;;43.30;22.00;;;;;;;6.60;100.00;94509.09;5100458;28;20199;-78
2022/12/09 00:07:06;;;;;;;38.27;21.40;;;;;;;6.63;100.00;94516.47;5103274;28;20192;-75
2022/12/09 00:09:33;;;;;;;42.13;23.67;;;;;;;6.59;100.00;94515.25;5100431;28;20191;-78
2022/12/09 00:12:00;;;;;;;40.47;23.17;;;;;;;6.43;100.00;94509.66;5097407;28;20657;-78
2022/12/09 00:14:28;;;;;;;40.77;22.57;;;;;;;6.36;100.00;94512.22;5102597;28;20253;-77
2022/12/09 00:16:55;;;;;;;42.63;22.93;;;;;;;6.27;100.00;94509.03;5099811;28;20585;-80
2022/12/09 00:19:22;;;;;;;38.97;21.67;;;;;;;6.38;100.00;94520.56;5102304;28;20188;-79
2022/12/09 00:21:49;;;;;;;44.27;22.30;;;;;;;6.40;100.00;94515.22;5099826;28;20184;-79
2022/12/09 00:24:15;;;;;;;42.30;23.17;;;;;;;6.42;100.00;94508.88;5105913;28;20191;-80
2022/12/09 00:26:42;;;;;;;41.63;23.33;;;;;;;6.55;100.00;94523.59;5103885;28;20192;-79
2022/12/09 00:29:11;;;;;;;40.47;23.10;;;;;;;6.56;100.00;94523.38;5104294;28;20207;-80
2022/12/09 00:31:39;;;;;;;42.00;23.43;;;;;;;6.63;100.00;94518.25;5105507;28;20584;-80
2022/12/09 00:34:08;;;;;;;41.47;22.27;;;;;;;6.61;100.00;94520.25;5101579;28;20210;-80
2022/12/09 00:36:35;;;;;;;37.77;22.27;;;;;;;6.60;100.00;94527.19;5097547;28;20237;-80
2022/12/09 00:39:02;;;;;;;39.07;21.67;;;;;;;6.62;100.00;94517.44;5095015;28;20253;-80
2022/12/09 00:41:29;;;;;;;38.37;21.37;;;;;;;6.70;100.00;94529.34;5102649;28;20198;-81
2022/12/09 00:43:56;;;;;;;40.07;21.20;;;;;;;6.72;100.00;94535.13;5097937;28;20196;-82
2022/12/09 00:46:23;;;;;;;39.47;22.17;;;;;;;6.79;100.00;94534.16;5108226;28;20181;-80
2022/12/09 00:48:51;;;;;;;36.03;21.37;;;;;;;6.77;100.00;94523.22;5105799;28;20197;-80
2022/12/09 00:51:20;;;;;;;40.07;21.73;;;;;;;6.76;100.00;94513.09;5098412;28;20199;-80
2022/12/09 00:53:47;;;;;;;41.07;21.90;;;;;;;6.79;100.00;94521.22;5111647;28;20211;-80
2022/12/09 00:56:15;;;;;;;39.37;23.23;;;;;;;6.80;100.00;94517.66;5100844;28;20201;-79
2022/12/09 00:58:42;;;;;;;43.13;23.63;;;;;;;6.78;100.00;94511.13;5089919;28;20188;-80
2022/12/09 01:01:08;;;;;;;34.90;20.67;;;;;;;6.74;100.00;94520.25;5105265;28;20196;-80
2022/12/09 01:03:35;;;;;;;36.93;21.00;;;;;;;6.64;100.00;94507.72;5105919;28;20187;-80
2022/12/09 01:06:07;;;;;;;40.67;22.47;;;;;;;6.62;100.00;94511.47;5110158;28;20198;-80
2022/12/09 01:08:34;;;;;;;47.20;22.93;;;;;;;6.62;100.00;94519.22;5105000;28;20188;-81
2022/12/09 01:11:07;;;;;;;41.93;22.93;;;;;;;6.56;100.00;94496.78;5088328;28;20664;-80
2022/12/09 01:13:34;;;;;;;43.80;23.77;;;;;;;6.43;100.00;94500.16;5112838;28;20225;-81
2022/12/09 01:16:01;;;;;;;41.70;22.87;;;;;;;6.52;100.00;94501.53;5107405;28;20184;-80
2022/12/09 01:18:27;;;;;;;40.37;23.40;;;;;;;6.59;100.00;94507.50;5111064;28;20199;-81
2022/12/09 01:20:57;;;;;;;47.73;25.50;;;;;;;6.61;100.00;94502.16;5098220;28;20200;-80
2022/12/09 01:23:25;;;;;;;41.87;24.03;;;;;;;6.63;100.00;94513.88;5101410;28;20192;-80
2022/12/09 01:25:52;;;;;;;42.90;24.97;;;;;;;6.55;100.00;94503.72;5107603;28;20199;-80
2022/12/09 01:28:18;;;;;;;46.03;24.23;;;;;;;6.64;100.00;94517.22;5100549;28;20646;-81
2022/12/09 01:30:45;;;;;;;43.30;24.90;;;;;;;6.58;100.00;94521.41;5110428;28;20199;-80
2022/12/09 01:33:12;;;;;;;47.17;24.10;;;;;;;6.66;100.00;94521.25;5112588;28;20235;-80
2022/12/09 01:35:40;;;;;;;41.10;23.37;;;;;;;6.65;100.00;94521.41;5110869;28;20226;-77
2022/12/09 01:38:07;;;;;;;44.50;24.03;;;;;;;6.66;100.00;94526.41;5103118;28;20192;-76
2022/12/09 01:40:35;;;;;;;42.50;23.57;;;;;;;6.65;100.00;94508.50;5102878;28;20188;-77
2022/12/09 01:43:02;;;;;;;43.60;23.20;;;;;;;6.72;100.00;94506.75;5100533;28;20187;-76
2022/12/09 01:45:43;;;;;;;45.47;24.47;;;;;;;6.69;100.00;94499.38;5103796;28;20188;-76
2022/12/09 01:48:13;;;;;;;47.53;25.47;;;;;;;6.74;100.00;94502.97;5102629;28;20195;-76
2022/12/09 01:50:43;;;;;;;51.97;27.50;;;;;;;6.72;100.00;94501.56;5102573;28;20260;-76
2022/12/09 01:53:11;;;;;;;49.77;25.30;;;;;;;6.61;100.00;94481.50;5103652;28;20211;-75
2022/12/09 01:55:40;;;;;;;48.07;25.03;;;;;;;6.72;100.00;94504.16;5104671;28;20212;-77
2022/12/09 01:58:07;;;;;;;44.20;24.27;;;;;;;6.63;100.00;94511.28;5101434;28;20204;-80
2022/12/09 02:00:33;;;;;;;48.83;26.53;;;;;;;6.66;100.00;94512.69;5094340;28;20197;-80
2022/12/09 02:03:01;;;;;;;45.83;25.60;;;;;;;6.57;100.00;94488.03;5111351;28;20184;-80
2022/12/09 02:05:29;;;;;;;53.47;27.70;;;;;;;6.63;100.00;94506.13;5094253;28;20340;-80
2022/12/09 02:07:56;;;;;;;53.03;30.23;;;;;;;6.64;100.00;94486.25;5100159;28;20257;-80
2022/12/09 02:10:23;;;;;;;55.53;31.23;;;;;;;6.59;100.00;94486.84;5100665;28;20669;-81
2022/12/09 02:13:04;;;;;;;64.80;35.80;;;;;;;6.57;100.00;94496.59;5106268;28;20214;-80
2022/12/09 02:15:37;;;;;;;53.17;29.87;;;;;;;6.46;100.00;94483.47;5095459;28;20184;-79
2022/12/09 02:18:11;;;;;;;53.47;30.33;;;;;;;6.39;100.00;94487.81;5100099;28;20192;-81
2022/12/09 02:20:41;;;;;;;62.20;35.93;;;;;;;6.37;100.00;94482.88;5099295;28;20237;-79
2022/12/09 02:23:16;;;;;;;63.63;35.60;;;;;;;6.36;100.00;94488.22;5100397;28;20570;-76
2022/12/09 02:25:47;;;;;;;59.17;35.53;;;;;;;6.36;100.00;94477.88;5100081;28;20217;-77
2022/12/09 02:28:44;;;;;;;57.03;33.13;;;;;;;6.48;100.00;94492.59;5099545;28;20206;-77
2022/12/09 02:31:23;;;;;;;61.10;31.63;;;;;;;6.47;100.00;94485.03;5101223;28;20564;-76
2022/12/09 02:34:10;;;;;;;59.93;33.63;;;;;;;6.47;100.00;94474.72;5099659;28;20264;-76
2022/12/09 02:36:44;;;;;;;59.37;32.03;;;;;;;6.57;100.00;94483.69;5097967;28;20223;-77
2022/12/09 02:39:11;;;;;;;64.50;33.63;;;;;;;6.58;100.00;94482.66;5101581;28;20541;-76
2022/12/09 02:41:44;;;;;;;60.67;32.73;;;;;;;6.62;100.00;94483.88;5100786;28;20184;-76
2022/12/09 02:44:16;;;;;;;56.10;31.20;;;;;;;6.65;100.00;94505.94;5102883;28;20193;-76
2022/12/09 02:46:44;;;;;;;54.10;29.20;;;;;;;6.69;100.00;94500.19;5095682;28;20193;-76
2022/12/09 02:49:14;;;;;;;48.33;28.83;;;;;;;6.66;100.00;94503.16;5102790;28;20196;-76
2022/12/09 02:51:43;;;;;;;49.23;29.07;;;;;;;6.65;100.00;94514.47;5103065;28;20235;-77
2022/12/09 02:54:13;;;;;;;49.00;27.27;;;;;;;6.63;100.00;94510.50;5103696;28;20214;-76
2022/12/09 02:56:44;;;;;;;53.73;29.90;;;;;;;6.49;100.00;94516.63;5103823;28;20187;-76
2022/12/09 02:59:11;;;;;;;48.27;28.17;;;;;;;6.51;100.00;94512.88;5101532;28;20199;-76
2022/12/09 03:01:45;;;;;;;50.90;28.50;;;;;;;6.57;100.00;94521.59;5102545;28;20186;-76
2022/12/09 03:04:18;;;;;;;45.77;26.47;;;;;;;6.57;100.00;94509.50;5100232;28;20571;-76
2022/12/09 03:06:50;;;;;;;50.97;27.13;;;;;;;6.45;100.00;94502.53;5099470;28;20207;-76
2022/12/09 03:09:23;;;;;;;50.60;26.50;;;;;;;6.56;100.00;94517.44;5100652;28;20192;-76
2022/12/09 03:11:51;;;;;;;48.77;27.30;;;;;;;6.65;100.00;94518.84;5102050;28;20191;-77
2022/12/09 03:14:22;;;;;;;50.73;27.40;;;;;;;6.60;100.00;94516.06;5101963;28;20219;-76
2022/12/09 03:16:54;;;;;;;49.60;26.80;;;;;;;6.58;100.00;94497.41;5102915;28;20241;-78
2022/12/09 03:19:28;;;;;;;48.37;27.07;;;;;;;6.57;100.00;94500.97;5098505;28;20195;-76
2022/12/09 03:21:58;;;;;;;43.37;22.83;;;;;;;6.58;100.00;94511.06;5101064;28;20237;-77
2022/12/09 03:24:30;;;;;;;52.20;25.70;;;;;;;6.59;100.00;94496.38;5097817;28;20192;-79
2022/12/09 03:27:00;;;;;;;62.70;35.30;;;;;;;6.53;100.00;94505.72;5103549;28;20190;-78
2022/12/09 03:29:32;;;;;;;92.60;50.47;;;;;;;6.43;100.00;94507.09;5104294;28;20198;-78
2022/12/09 03:31:59;;;;;;;85.30;47.93;;;;;;;6.52;100.00;94500.75;5100768;28;20521;-77
2022/12/09 03:34:34;;;;;;;72.47;41.53;;;;;;;6.47;100.00;94492.78;5104944;28;20226;-76
2022/12/09 03:37:04;;;;;;;71.70;39.13;;;;;;;6.56;100.00;94507.09;5098063;28;20184;-77
2022/12/09 03:39:35;;;;;;;60.60;37.40;;;;;;;6.44;100.00;94490.59;5101354;28;20261;-77
2022/12/09 03:42:05;;;;;;;59.03;33.13;;;;;;;6.46;100.00;94484.28;5098644;28;20177;-77
2022/12/09 03:44:38;;;;;;;65.37;31.07;;;;;;;6.46;100.00;94491.22;5103691;28;20194;-76
2022/12/09 03:47:08;;;;;;;56.47;31.47;;;;;;;6.38;100.00;94475.94;5096443;28;20256;-76
2022/12/09 03:49:38;;;;;;;56.40;32.27;;;;;;;6.37;100.00;94489.81;5100441;28;20280;-76
2022/12/09 03:52:11;;;;;;;64.53;35.80;;;;;;;6.48;100.00;94494.38;5098590;28;20185;-80
2022/12/09 03:54:43;;;;;;;58.27;32.87;;;;;;;6.48;100.00;94490.03;5100290;28;20223;-79
2022/12/09 03:57:13;;;;;;;61.03;33.13;;;;;;;6.51;100.00;94491.41;5103784;28;20276;-79
2022/12/09 03:59:42;;;;;;;57.27;29.97;;;;;;;6.45;100.00;94505.91;5094989;28;20191;-80
2022/12/09 04:02:09;;;;;;;55.50;32.30;;;;;;;6.50;100.00;94498.34;5096138;28;20550;-80
2022/12/09 04:04:40;;;;;;;60.50;31.40;;;;;;;6.51;100.00;94496.56;5102347;28;20192;-79
2022/12/09 04:07:08;;;;;;;53.30;31.03;;;;;;;6.49;100.00;94499.38;5100879;28;20180;-76
2022/12/09 04:09:35;;;;;;;54.13;30.40;;;;;;;6.55;100.00;94502.94;5102172;28;20193;-76
2022/12/09 04:12:01;;;;;;;50.67;29.60;;;;;;;6.51;100.00;94502.53;5100264;28;20193;-76
2022/12/09 04:14:28;;;;;;;54.80;31.03;;;;;;;6.57;100.00;94499.19;5100401;28;20208;-76
2022/12/09 04:16:55;;;;;;;54.07;30.13;;;;;;;6.52;100.00;94486.03;5099244;28;20203;-76
2022/12/09 04:19:22;;;;;;;51.63;29.60;;;;;;;6.48;100.00;94491.81;5097214;28;20189;-76
2022/12/09 04:21:50;;;;;;;49.00;28.57;;;;;;;6.48;100.00;94505.50;5100408;28;20195;-80
2022/12/09 04:24:17;;;;;;;50.47;29.00;;;;;;;6.51;100.00;94510.28;5101603;28;20223;-79
2022/12/09 04:26:44;;;;;;;55.90;30.17;;;;;;;6.54;100.00;94493.59;5096770;28;20188;-80
2022/12/09 04:29:12;;;;;;;49.57;27.60;;;;;;;6.59;100.00;94507.50;5097468;28;20197;-79
2022/12/09 04:31:39;;;;;;;45.47;26.03;;;;;;;6.61;100.00;94509.91;5108450;28;20210;-80
2022/12/09 04:34:06;;;;;;;43.17;25.00;;;;;;;6.59;100.00;94512.66;5098920;28;20329;-80
2022/12/09 04:36:32;;;;;;;43.80;23.77;;;;;;;6.63;100.00;94506.13;5098458;28;20234;-80
2022/12/09 04:39:04;;;;;;;40.97;22.17;;;;;;;6.66;100.00;94503.16;5102878;28;20512;-81
2022/12/09 04:41:31;;;;;;;49.50;22.50;;;;;;;6.55;100.00;94490.03;5102451;28;20232;-79
2022/12/09 04:43:58;;;;;;;44.30;24.37;;;;;;;6.59;100.00;94504.94;5099399;28;20196;-79
2022/12/09 04:46:25;;;;;;;41.90;24.90;;;;;;;6.59;100.00;94493.81;5101383;28;20192;-80
2022/12/09 04:48:52;;;;;;;43.53;23.30;;;;;;;6.63;100.00;94493.22;5101821;28;20202;-80
2022/12/09 04:51:19;;;;;;;44.67;24.70;;;;;;;6.63;100.00;94500.16;5096739;28;20981;-80
2022/12/09 04:53:46;;;;;;;44.37;22.87;;;;;;;6.64;100.00;94502.53;5102955;28;20218;-81
2022/12/09 04:56:17;;;;;;;43.27;22.73;;;;;;;6.59;100.00;94522.19;5103084;28;20643;-81
2022/12/09 04:58:44;;;;;;;50.20;27.20;;;;;;;6.53;100.00;94517.81;5084631;28;20238;-80
2022/12/09 05:01:14;;;;;;;52.93;27.43;;;;;;;6.33;100.00;94512.63;5101621;28;20211;-80
2022/12/09 05:03:40;;;;;;;56.27;29.30;;;;;;;6.24;100.00;94517.16;5096934;28;20219;-80
2022/12/09 05:06:23;;;;;;;56.27;29.27;;;;;;;6.23;100.00;94510.41;5104056;28;20196;-81
2022/12/09 05:08:50;;;;;;;57.50;28.17;;;;;;;6.13;100.00;94520.31;5096283;28;20211;-79
2022/12/09 05:11:20;;;;;;;49.97;27.93;;;;;;;6.08;100.00;94514.16;5096969;28;20197;-80
2022/12/09 05:13:46;;;;;;;62.37;32.93;;;;;;;6.06;100.00;94513.56;5108953;28;20223;-80
2022/12/09 05:16:16;;;;;;;63.43;32.93;;;;;;;6.04;100.00;94510.34;5100077;28;20781;-80
2022/12/09 05:18:44;;;;;;;55.13;31.87;;;;;;;6.06;100.00;94504.00;5090699;28;20238;-78
2022/12/09 05:21:13;;;;;;;57.63;31.83;;;;;;;6.01;100.00;94503.00;5106400;28;20270;-79
2022/12/09 05:23:40;;;;;;;62.33;32.30;;;;;;;6.11;100.00;94498.28;5097574;28;20219;-80
2022/12/09 05:26:08;;;;;;;66.73;35.27;;;;;;;6.16;100.00;94501.06;5099602;28;20196;-79
2022/12/09 05:28:37;;;;;;;70.63;35.23;;;;;;;6.11;100.00;94503.44;5091164;28;20241;-79
2022/12/09 05:31:05;;;;;;;63.07;35.20;;;;;;;6.02;100.00;94496.88;5090936;28;20187;-78
2022/12/09 05:33:32;;;;;;;65.87;36.10;;;;;;;6.03;100.00;94508.78;5099211;28;20193;-79
2022/12/09 05:35:59;;;;;;;72.47;39.50;;;;;;;6.01;100.00;94505.56;5101210;28;20230;-79
2022/12/09 05:38:26;;;;;;;86.20;46.60;;;;;;;6.14;100.00;94524.50;5107233;28;20199;-79
2022/12/09 05:40:54;;;;;;;82.23;40.97;;;;;;;6.13;100.00;94527.25;5104186;28;20191;-79
2022/12/09 05:43:20;;;;;;;81.47;40.73;;;;;;;6.17;100.00;94528.47;5099924;28;20195;-81
2022/12/09 05:45:48;;;;;;;84.93;44.20;;;;;;;6.21;100.00;94532.22;5100757;28;20580;-80
2022/12/09 05:48:15;;;;;;;91.40;47.77;;;;;;;6.33;100.00;94533.25;5102575;28;20187;-81
2022/12/09 05:50:42;;;;;;;102.90;54.13;;;;;;;6.34;100.00;94523.75;5099307;28;20192;-79
2022/12/09 05:53:09;;;;;;;109.77;54.37;;;;;;;6.32;100.00;94528.31;5104268;28;20295;-79
2022/12/09 05:55:40;;;;;;;107.87;56.60;;;;;;;6.33;100.00;94530.69;5100465;28;20212;-80
2022/12/09 05:58:06;;;;;;;101.93;54.27;;;;;;;6.31;100.00;94531.88;5099792;28;20714;-74
2022/12/09 06:00:33;;;;;;;107.67;56.47;;;;;;;6.37;100.00;94523.34;5103727;28;20922;-75
2022/12/09 06:03:01;;;;;;;101.70;56.17;;;;;;;6.32;100.00;94498.13;5102501;28;20193;-74
2022/12/09 06:05:28;;;;;;;98.50;49.73;;;;;;;6.21;100.00;94522.72;5103068;28;20203;-74
2022/12/09 06:07:55;;;;;;;71.07;37.90;;;;;;;6.24;100.00;94519.75;5103769;28;20222;-74
2022/12/09 06:10:22;;;;;;;77.27;40.53;;;;;;;6.22;100.00;94520.94;5079415;28;20609;-74
2022/12/09 06:12:53;;;;;;;71.80;37.63;;;;;;;6.22;100.00;94528.69;5096115;28;20199;-75
2022/12/09 06:15:20;;;;;;;74.87;42.93;;;;;;;6.26;100.00;94512.59;5103809;28;20203;-73
2022/12/09 06:17:47;;;;;;;79.40;44.77;;;;;;;6.22;100.00;94526.09;5102041;28;20196;-74
2022/12/09 06:20:15;;;;;;;83.83;45.13;;;;;;;6.30;100.00;94533.66;5101054;28;20818;-74
2022/12/09 06:22:42;;;;;;;112.43;56.57;;;;;;;6.34;100.00;94544.38;5101031;28;20199;-74
2022/12/09 06:25:09;;;;;;;131.67;69.27;;;;;;;6.38;100.00;94538.63;5099927;28;20266;-74
2022/12/09 06:27:36;;;;;;;135.07;66.07;;;;;;;6.29;100.00;94550.91;5099054;28;20196;-75
2022/12/09 06:30:03;;;;;;;124.87;65.23;;;;;;;6.34;100.00;94541.81;5095215;28;20264;-73
2022/12/09 06:32:30;;;;;;;95.17;52.60;;;;;;;6.24;100.00;94537.00;5101993;28;20189;-74
2022/12/09 06:34:57;;;;;;;89.07;45.37;;;;;;;6.36;100.00;94556.09;5100434;28;20231;-74
2022/12/09 06:37:25;;;;;;;73.70;40.63;;;;;;;6.39;100.00;94550.56;5101066;28;20192;-74
2022/12/09 06:39:52;;;;;;;64.13;34.93;;;;;;;6.37;100.00;94546.59;5101608;28;20195;-74
2022/12/09 06:42:18;;;;;;;60.87;31.97;;;;;;;6.49;100.00;94553.56;5102391;28;20195;-74
2022/12/09 06:44:45;;;;;;;51.83;28.10;;;;;;;6.59;100.00;94550.59;5100959;28;20195;-74
2022/12/09 06:47:12;;;;;;;48.30;26.73;;;;;;;6.58;100.00;94567.88;5100201;28;20585;-76
2022/12/09 06:49:39;;;;;;;47.27;26.17;;;;;;;6.67;100.00;94564.13;5101272;28;20681;-74
2022/12/09 06:52:06;;;;;;;46.40;26.10;;;;;;;6.69;100.00;94569.91;5101321;28;20607;-74
2022/12/09 06:54:34;;;;;;;50.97;27.37;;;;;;;6.56;100.00;94576.81;5101131;28;20211;-75
2022/12/09 06:57:01;;;;;;;50.33;28.47;;;;;;;6.52;100.00;94558.31;5102351;28;20195;-75
2022/12/09 06:59:27;;;;;;;55.93;29.63;;;;;;;6.40;100.00;94569.41;5099673;28;20215;-75
2022/12/09 07:01:54;;;;;;;57.40;30.27;;;;;;;6.44;100.00;94574.00;5102190;28;20554;-73
2022/12/09 07:04:21;;;;;;;54.83;28.47;;;;;;;6.42;100.00;94551.94;5102969;28;20718;-74
2022/12/09 07:06:48;;;;;;;49.90;28.60;;;;;;;6.55;100.00;94557.94;5099913;28;20246;-75
2022/12/09 07:09:18;;;;;;;56.33;29.27;;;;;;;6.64;100.00;94563.72;5102749;28;20663;-75
2022/12/09 07:11:47;;;;;;;54.90;30.53;;;;;;;6.66;100.00;94556.59;5098660;28;20257;-75
2022/12/09 07:14:18;;;;;;;51.13;29.60;;;;;;;6.68;100.00;94560.56;5103343;28;20626;-74
2022/12/09 07:16:45;;;;;;;54.93;30.73;;;;;;;6.76;100.00;94562.13;5098267;28;20194;-74
2022/12/09 07:19:16;;;;;;;66.27;37.50;;;;;;;6.72;100.00;94551.41;5101266;28;20692;-74
2022/12/09 07:21:43;;;;;;;84.43;45.73;;;;;;;6.82;100.00;94558.78;5093922;28;20188;-74
2022/12/09 07:24:11;;;;;;;64.27;37.20;;;;;;;6.78;100.00;94558.38;5100473;28;20204;-75
2022/12/09 07:26:38;;;;;;;70.63;38.33;;;;;;;6.80;100.00;94560.78;5083413;28;20284;-75
2022/12/09 07:29:07;;;;;;;85.00;44.73;;;;;;;6.78;100.00;94560.19;5097978;28;20221;-75
2022/12/09 07:31:35;;;;;;;93.07;52.97;;;;;;;6.76;100.00;94557.78;5097665;28;20252;-75
2022/12/09 07:34:02;;;;;;;113.43;59.17;;;;;;;6.87;100.00;94565.94;5102816;28;20193;-74
2022/12/09 07:36:31;;;;;;;83.27;45.17;;;;;;;6.93;100.00;94572.88;5100494;28;20212;-74
2022/12/09 07:38:59;;;;;;;91.30;50.07;;;;;;;6.94;100.00;94564.16;5102211;28;20639;-74
2022/12/09 07:41:27;;;;;;;104.80;62.30;;;;;;;6.88;100.00;94560.56;5099474;28;20547;-74
2022/12/09 07:43:53;;;;;;;119.27;68.13;;;;;;;6.94;100.00;94561.56;5099968;28;20568;-75
2022/12/09 07:46:24;;;;;;;137.47;82.27;;;;;;;6.99;100.00;94559.19;5101926;28;20616;-74
2022/12/09 07:48:51;;;;;;;177.07;111.00;;;;;;;7.05;100.00;94564.38;5104128;28;20176;-80
2022/12/09 07:51:18;;;;;;;188.00;117.40;;;;;;;7.11;100.00;94552.44;5101171;28;20628;-80
2022/12/09 07:53:45;;;;;;;197.67;126.53;;;;;;;7.24;100.00;94552.44;5099167;28;20676;-80
2022/12/09 07:56:14;;;;;;;164.17;99.77;;;;;;;7.34;100.00;94551.03;5101173;28;20211;-80
2022/12/09 07:58:42;;;;;;;160.77;94.50;;;;;;;7.39;100.00;94545.25;5104633;28;20611;-79
2022/12/09 08:01:10;;;;;;;155.07;94.03;;;;;;;7.42;100.00;94547.44;5100920;28;20200;-79
2022/12/09 08:03:40;;;;;;;147.67;90.80;;;;;;;7.51;100.00;94556.59;5099528;28;20407;-80
2022/12/09 08:06:08;;;;;;;148.00;87.33;;;;;;;7.67;100.00;94558.75;5101298;28;20195;-80
2022/12/09 08:08:35;;;;;;;147.17;86.63;;;;;;;7.70;100.00;94560.94;5101549;28;20199;-80
2022/12/09 08:11:07;;;;;;;152.00;87.47;;;;;;;7.71;100.00;94552.16;5101282;28;20188;-80
2022/12/09 08:13:34;;;;;;;153.27;90.53;;;;;;;7.78;100.00;94549.56;5099197;28;20208;-79
2022/12/09 08:16:02;;;;;;;168.90;91.17;;;;;;;7.86;100.00;94565.66;5099177;28;20208;-80
2022/12/09 08:18:29;;;;;;;160.07;90.37;;;;;;;7.91;100.00;94560.66;5097333;28;20230;-79
2022/12/09 08:20:57;;;;;;;150.53;89.40;;;;;;;8.02;100.00;94562.63;5102328;28;20200;-79
2022/12/09 08:23:24;;;;;;;152.33;86.93;;;;;;;8.16;100.00;94572.94;5101903;28;20199;-79
2022/12/09 08:25:53;;;;;;;148.70;83.03;;;;;;;8.29;100.00;94568.53;5104997;28;20598;-80
2022/12/09 08:28:20;;;;;;;138.77;79.33;;;;;;;8.37;100.00;94573.47;5096177;28;20207;-80
2022/12/09 08:30:47;;;;;;;149.07;79.50;;;;;;;8.54;100.00;94571.22;5098129;28;20196;-80
2022/12/09 08:33:14;;;;;;;136.17;79.50;;;;;;;8.63;100.00;94566.59;5094806;28;20200;-80
2022/12/09 08:35:41;;;;;;;131.97;75.50;;;;;;;8.72;100.00;94552.38;5095026;28;20745;-75
2022/12/09 08:38:09;;;;;;;113.63;68.07;;;;;;;8.89;100.00;94564.63;5098448;28;20681;-75
2022/12/09 08:40:36;;;;;;;112.63;64.57;;;;;;;8.96;100.00;94562.78;5100503;28;20188;-75
2022/12/09 08:43:04;;;;;;;107.13;61.50;;;;;;;9.08;100.00;94563.72;5095891;28;20197;-78
2022/12/09 08:45:35;;;;;;;103.23;55.23;;;;;;;9.12;100.00;94557.06;5106509;28;20212;-79
2022/12/09 08:48:02;;;;;;;92.57;54.37;;;;;;;9.21;100.00;94546.44;5096648;28;20193;-81
2022/12/09 08:50:28;;;;;;;90.10;50.13;;;;;;;9.27;100.00;94541.22;5100836;28;20196;-80
2022/12/09 08:52:55;;;;;;;76.07;42.60;;;;;;;9.29;100.00;94534.03;5102145;28;20298;-79
2022/12/09 08:55:23;;;;;;;71.73;39.30;;;;;;;9.34;100.00;94517.81;5101272;28;20219;-80
2022/12/09 08:57:50;;;;;;;67.43;37.50;;;;;;;9.45;100.00;94522.31;5091039;28;20196;-80
2022/12/09 09:00:18;;;;;;;69.77;39.07;;;;;;;9.53;100.00;94516.81;5097282;28;20356;-80
2022/12/09 09:02:45;;;;;;;69.37;37.67;;;;;;;9.64;100.00;94526.50;5094336;28;20191;-80
2022/12/09 09:05:12;;;;;;;80.80;37.23;;;;;;;9.73;100.00;94517.41;5098899;28;20686;-80
2022/12/09 09:07:39;;;;;;;65.50;39.10;;;;;;;9.84;100.00;94508.91;5095457;28;20284;-79
2022/12/09 09:10:07;;;;;;;67.43;37.07;;;;;;;9.93;100.00;94506.81;5103153;28;20555;-80
2022/12/09 09:12:35;;;;;;;72.30;36.97;;;;;;;9.99;100.00;94501.56;5097608;28;20196;-76
2022/12/09 09:15:02;;;;;;;72.70;38.20;;;;;;;10.03;100.00;94502.72;5099475;28;20207;-75
2022/12/09 09:17:29;;;;;;;65.73;36.10;;;;;;;10.06;100.00;94496.31;5103140;28;20192;-76
2022/12/09 09:19:56;;;;;;;69.57;36.57;;;;;;;10.09;100.00;94508.84;5105431;28;20196;-75
2022/12/09 09:22:23;;;;;;;68.10;31.43;;;;;;;9.96;100.00;94498.59;5098756;28;20199;-76
2022/12/09 09:24:52;;;;;;;53.33;27.50;;;;;;;10.02;100.00;94490.75;5100129;28;20184;-75
2022/12/09 09:27:19;;;;;;;60.07;26.23;;;;;;;10.11;100.00;94481.66;5102067;28;20196;-77
2022/12/09 09:29:48;;;;;;;59.60;27.90;;;;;;;10.20;100.00;94484.75;5102784;28;20197;-75
2022/12/09 09:32:15;;;;;;;63.73;32.23;;;;;;;10.27;100.00;94470.66;5102465;28;20686;-76
2022/12/09 09:34:42;;;;;;;64.13;33.47;;;;;;;10.39;100.00;94469.94;5102462;28;20716;-76
2022/12/09 09:37:08;;;;;;;71.07;33.03;;;;;;;10.49;100.00;94470.97;5102801;28;20197;-74
2022/12/09 09:39:35;;;;;;;70.97;33.53;;;;;;;10.68;100.00;94450.91;5107163;28;20191;-76
2022/12/09 09:42:05;;;;;;;75.67;31.40;;;;;;;10.79;100.00;94447.56;5082871;28;20214;-76
2022/12/09 09:44:38;;;;;;;76.00;31.20;;;;;;;10.76;100.00;94453.22;5093230;28;20196;-75
2022/12/09 09:47:25;;;;;;;66.03;30.93;;;;;;;11.00;100.00;94443.59;5075943;28;20200;-79
2022/12/09 09:49:55;;;;;;;61.17;29.00;;;;;;;11.82;100.00;94451.16;5098773;28;20185;-77
2022/12/09 09:52:24;;;;;;;58.43;26.30;;;;;;;13.18;96.94;94452.00;5097423;28;20224;-76
2022/12/09 09:54:51;;;;;;;54.30;26.97;;;;;;;14.60;89.98;94465.81;5102346;28;20726;-77
2022/12/09 09:57:26;;;;;;;53.47;25.77;;;;;;;16.07;83.17;94468.44;5100895;28;20261;-77
2022/12/09 10:00:02;;;;;;;63.70;24.23;;;;;;;17.51;77.60;94457.63;5103273;28;20187;-79
2022/12/09 10:02:48;;;;;;;51.80;20.20;;;;;;;18.55;72.33;94458.63;5093155;28;20204;-79
2022/12/09 10:05:22;;;;;;;52.00;18.97;;;;;;;18.72;69.71;94434.56;5103314;28;20180;-79
2022/12/09 10:07:53;;;;;;;49.73;19.53;;;;;;;17.98;70.73;94441.47;5101109;28;20184;-75
2022/12/09 10:10:35;;;;;;;51.50;20.60;;;;;;;17.17;71.92;94429.56;5102072;28;20181;-74
2022/12/09 10:13:14;;;;;;;59.43;20.30;;;;;;;16.45;75.56;94422.63;5098462;28;20188;-77
2022/12/09 10:15:47;;;;;;;58.37;22.10;;;;;;;15.78;77.70;94413.00;5104813;28;20196;-73
2022/12/09 10:18:20;;;;;;;68.33;23.20;;;;;;;14.95;80.87;94398.06;5102809;28;20192;-75
2022/12/09 10:20:48;;;;;;;58.13;22.43;;;;;;;14.46;82.60;94396.63;5095503;28;20189;-75
2022/12/09 10:23:16;;;;;;;44.97;21.33;;;;;;;14.11;84.65;94394.44;5103191;28;20550;-77
2022/12/09 10:25:46;;;;;;;53.90;22.03;;;;;;;13.86;85.08;94399.34;5097918;28;20200;-76
2022/12/09 10:28:20;;;;;;;51.60;21.70;;;;;;;13.70;86.47;94398.41;5099713;28;20195;-75
2022/12/09 10:30:47;;;;;;;44.73;20.60;;;;;;;13.52;86.78;94383.81;5100345;28;20193;-75
2022/12/09 10:33:17;;;;;;;53.47;21.63;;;;;;;13.21;88.48;94375.84;5102020;28;20220;-80
2022/12/09 10:35:45;;;;;;;48.73;22.37;;;;;;;13.06;89.47;94369.34;5102725;28;20221;-79
2022/12/09 10:38:14;;;;;;;49.97;21.60;;;;;;;12.97;90.44;94378.63;5105409;28;20739;-80
2022/12/09 10:40:53;;;;;;;61.23;21.47;;;;;;;12.93;90.38;94371.47;5102887;28;20664;-75
2022/12/09 10:43:33;;;;;;;61.43;20.57;;;;;;;12.91;90.32;94365.72;5102497;28;20196;-75
2022/12/09 10:46:02;;;;;;;68.00;21.27;;;;;;;12.70;91.29;94358.66;5103290;28;20184;-75
2022/12/09 10:48:33;;;;;;;47.03;20.33;;;;;;;12.68;91.96;94365.91;5101757;28;20220;-74
2022/12/09 10:51:02;;;;;;;48.27;19.57;;;;;;;12.65;92.44;94358.56;5100920;28;20188;-74
2022/12/09 10:53:30;;;;;;;49.83;18.70;;;;;;;12.74;91.47;94365.75;5102615;28;20197;-74
2022/12/09 10:56:00;;;;;;;53.30;20.53;;;;;;;12.57;92.63;94353.75;5102494;28;20223;-76
2022/12/09 10:58:29;;;;;;;53.03;19.30;;;;;;;12.57;92.46;94351.13;5096093;28;20196;-76
2022/12/09 11:01:08;;;;;;;36.67;17.73;;;;;;;12.48;92.88;94361.97;5097033;28;20207;-75
2022/12/09 11:03:41;;;;;;;50.03;19.83;;;;;;;12.61;92.57;94349.63;5099173;28;20188;-75
2022/12/09 11:06:20;;;;;;;55.10;18.60;;;;;;;12.58;92.39;94339.69;5098543;28;20195;-76
2022/12/09 11:08:52;;;;;;;47.73;18.23;;;;;;;12.81;92.14;94342.13;5096227;28;20568;-77
2022/12/09 11:11:19;;;;;;;52.23;17.93;;;;;;;12.90;91.66;94351.88;5099290;28;20746;-79
2022/12/09 11:13:47;;;;;;;46.37;17.00;;;;;;;12.71;91.94;94342.75;5099098;28;20207;-80
2022/12/09 11:16:14;;;;;;;41.17;14.97;;;;;;;12.58;91.83;94342.28;5098943;28;20707;-76
2022/12/09 11:18:46;;;;;;;49.10;16.63;;;;;;;12.54;92.24;94352.41;5092081;28;20200;-80
2022/12/09 11:21:30;;;;;;;42.93;16.30;;;;;;;12.38;92.72;94343.53;5099849;28;20559;-83
2022/12/09 11:23:57;;;;;;;47.27;16.07;;;;;;;12.48;92.11;94325.47;5085251;28;20193;-79